Time;durP1;ratioP1;P1;durP2;ratioP2;P2;SDS_P1;SDS_P2;PMS_P1;PMS_P2;Temp;Humidity;BMP_temperature;BMP_pressure;BME280_temperature;BME280_humidity;BME280_pressure;Samples;Min_cycle;Max_cycle;Signal;HPM_P1;HPM_P2
2022/06/13 00:01:55;;;;;;;4.20;1.00;;;;;;;;;;5030370;28;20084;-54
2022/06/13 00:04:21;;;;;;;3.55;1.23;;;;;;;;;;5031496;28;20112;-54
2022/06/13 00:06:47;;;;;;;4.38;1.50;;;;;;;;;;5033474;28;20032;-55
2022/06/13 00:09:13;;;;;;;4.03;1.00;;;;;;;;;;5030872;28;20084;-53
2022/06/13 00:11:39;;;;;;;5.25;1.20;;;;;;;;;;5031608;28;20366;-54
2022/06/13 00:14:06;;;;;;;4.15;1.50;;;;;;;;;;5034203;28;20041;-55
2022/06/13 00:16:32;;;;;;;8.75;1.38;;;;;;;;;;5040726;28;20096;-55
2022/06/13 00:18:58;;;;;;;7.65;1.60;;;;;;;;;;5032391;28;20036;-55
2022/06/13 00:21:25;;;;;;;5.35;1.77;;;;;;;;;;5031893;28;20025;-53
2022/06/13 00:23:52;;;;;;;7.53;1.52;;;;;;;;;;5031362;28;20030;-55
2022/06/13 00:26:21;;;;;;;9.90;1.80;;;;;;;;;;5031560;28;20039;-54
2022/06/13 00:28:47;;;;;;;8.13;2.00;;;;;;;;;;5032405;28;20405;-53
2022/06/13 00:31:13;;;;;;;5.28;1.65;;;;;;;;;;5029725;28;20041;-54
2022/06/13 00:33:39;;;;;;;5.25;1.75;;;;;;;;;;5030206;28;20037;-56
2022/06/13 00:36:05;;;;;;;4.60;1.45;;;;;;;;;;5030939;28;20029;-57
2022/06/13 00:38:31;;;;;;;4.57;1.60;;;;;;;;;;5031535;28;20481;-55
2022/06/13 00:40:57;;;;;;;3.70;1.35;;;;;;;;;;5031899;28;20057;-55
2022/06/13 00:43:23;;;;;;;6.03;1.83;;;;;;;;;;5029868;28;20119;-56
2022/06/13 00:45:49;;;;;;;4.18;1.67;;;;;;;;;;5030176;28;20033;-55
2022/06/13 00:48:18;;;;;;;5.07;1.58;;;;;;;;;;5030835;28;20029;-56
2022/06/13 00:50:46;;;;;;;14.52;2.17;;;;;;;;;;5031828;28;20059;-56
2022/06/13 00:53:15;;;;;;;4.53;1.67;;;;;;;;;;5031361;28;20025;-56
2022/06/13 00:55:46;;;;;;;6.75;1.80;;;;;;;;;;5030754;28;20517;-55
2022/06/13 00:58:13;;;;;;;3.83;1.63;;;;;;;;;;5029408;28;20021;-56
2022/06/13 01:00:41;;;;;;;4.68;1.52;;;;;;;;;;5030258;28;20037;-55
2022/06/13 01:03:07;;;;;;;7.15;1.95;;;;;;;;;;5026892;28;20029;-56
2022/06/13 01:05:36;;;;;;;4.45;1.58;;;;;;;;;;5031632;28;20056;-56
2022/06/13 01:08:04;;;;;;;4.15;1.63;;;;;;;;;;5028492;28;20440;-57
2022/06/13 01:13:16;;;;;;;4.80;1.50;;;;;;;;;;5027867;28;20127;-56
2022/06/13 01:15:47;;;;;;;3.15;1.50;;;;;;;;;;5031501;28;20040;-55
2022/06/13 01:18:28;;;;;;;4.68;1.63;;;;;;;;;;5028210;28;20025;-55
2022/06/13 01:21:02;;;;;;;6.28;2.03;;;;;;;;;;5023586;28;20029;-56
2022/06/13 01:23:47;;;;;;;6.05;2.17;;;;;;;;;;5029497;28;20026;-56
2022/06/13 01:26:31;;;;;;;7.13;1.52;;;;;;;;;;5032527;28;20041;-55
2022/06/13 01:29:18;;;;;;;3.03;1.58;;;;;;;;;;5028767;28;20033;-54
2022/06/13 01:31:58;;;;;;;12.77;2.08;;;;;;;;;;5031190;28;20045;-54
2022/06/13 01:34:56;;;;;;;4.47;1.73;;;;;;;;;;5027735;28;20485;-55
2022/06/13 01:37:45;;;;;;;7.88;1.90;;;;;;;;;;5014908;28;20048;-55
2022/06/13 01:40:23;;;;;;;5.97;1.95;;;;;;;;;;5029285;28;20499;-55
2022/06/13 01:43:04;;;;;;;5.95;2.05;;;;;;;;;;5031642;28;20128;-56
2022/06/13 01:45:47;;;;;;;6.60;1.73;;;;;;;;;;5031484;28;20037;-55
2022/06/13 01:48:30;;;;;;;10.88;2.05;;;;;;;;;;5030274;28;20080;-54
2022/06/13 01:51:01;;;;;;;7.97;2.30;;;;;;;;;;5027033;28;20021;-54
2022/06/13 01:53:39;;;;;;;5.63;1.88;;;;;;;;;;5031241;28;20026;-55
2022/06/13 01:56:09;;;;;;;7.28;1.88;;;;;;;;;;5039889;28;20044;-55
2022/06/13 01:58:44;;;;;;;7.20;2.38;;;;;;;;;;5025565;28;20044;-56
2022/06/13 02:01:30;;;;;;;5.55;2.08;;;;;;;;;;5025630;28;20169;-55
2022/06/13 02:04:10;;;;;;;8.75;1.88;;;;;;;;;;5024849;28;20029;-55
2022/06/13 02:06:40;;;;;;;4.45;1.92;;;;;;;;;;5031713;28;20600;-55
2022/06/13 02:09:08;;;;;;;4.80;1.67;;;;;;;;;;5030302;28;20040;-54
2022/06/13 02:11:37;;;;;;;5.53;1.95;;;;;;;;;;5035530;28;20029;-56
2022/06/13 02:14:06;;;;;;;4.40;1.60;;;;;;;;;;5031659;28;20029;-55
2022/06/13 02:16:40;;;;;;;7.53;2.20;;;;;;;;;;5030989;28;20489;-55
2022/06/13 02:19:05;;;;;;;;;;;;;;;;;;5020878;28;20036;-56
2022/06/13 02:21:36;;;;;;;5.00;1.60;;;;;;;;;;5028864;28;19995;-56
2022/06/13 02:24:05;;;;;;;4.70;2.22;;;;;;;;;;5019461;28;20032;-56
2022/06/13 02:26:33;;;;;;;4.50;1.88;;;;;;;;;;5030018;28;20031;-54
2022/06/13 02:29:02;;;;;;;5.55;1.85;;;;;;;;;;5041936;28;20439;-55
2022/06/13 02:31:35;;;;;;;6.43;1.50;;;;;;;;;;5030154;28;20485;-56
2022/06/13 02:34:03;;;;;;;3.13;1.67;;;;;;;;;;5028442;28;20427;-55
2022/06/13 02:36:37;;;;;;;6.40;2.25;;;;;;;;;;5030635;28;20037;-55
2022/06/13 02:39:16;;;;;;;7.10;1.95;;;;;;;;;;5026689;28;20026;-53
2022/06/13 02:41:50;;;;;;;3.92;1.67;;;;;;;;;;5028696;28;20025;-56
2022/06/13 02:44:20;;;;;;;4.50;1.73;;;;;;;;;;5029066;28;20465;-53
2022/06/13 02:46:52;;;;;;;5.88;1.55;;;;;;;;;;5029372;28;20476;-56
2022/06/13 02:49:37;;;;;;;9.63;2.60;;;;;;;;;;5029281;28;20531;-54
2022/06/13 02:52:13;;;;;;;8.60;2.40;;;;;;;;;;5019026;28;20080;-54
2022/06/13 02:54:54;;;;;;;6.88;2.10;;;;;;;;;;5027544;28;24927;-52
2022/06/13 02:57:29;;;;;;;4.45;1.63;;;;;;;;;;5028190;28;20026;-56
2022/06/13 03:00:12;;;;;;;9.02;2.08;;;;;;;;;;5028920;28;20026;-56
2022/06/13 03:02:50;;;;;;;8.37;2.33;;;;;;;;;;5025732;28;20025;-56
2022/06/13 03:05:37;;;;;;;10.38;2.50;;;;;;;;;;5028239;28;20033;-55
2022/06/13 03:08:19;;;;;;;8.13;2.03;;;;;;;;;;5030674;28;20029;-55
2022/06/13 03:10:49;;;;;;;3.47;1.90;;;;;;;;;;5028738;28;20425;-57
2022/06/13 03:13:24;;;;;;;6.97;1.88;;;;;;;;;;5027556;28;20030;-55
2022/06/13 03:15:52;;;;;;;10.13;2.55;;;;;;;;;;5029736;28;20018;-56
2022/06/13 03:18:23;;;;;;;5.13;1.88;;;;;;;;;;5029597;28;20516;-55
2022/06/13 03:20:54;;;;;;;7.43;2.40;;;;;;;;;;5022977;28;20048;-53
2022/06/13 03:23:29;;;;;;;11.02;2.25;;;;;;;;;;5028193;28;20090;-56
2022/06/13 03:26:01;;;;;;;7.85;1.98;;;;;;;;;;5030257;28;20087;-54
2022/06/13 03:28:29;;;;;;;4.70;2.28;;;;;;;;;;5028192;28;20059;-55
2022/06/13 03:31:01;;;;;;;5.32;1.95;;;;;;;;;;5025887;28;20029;-54
2022/06/13 03:33:40;;;;;;;8.27;2.40;;;;;;;;;;5032107;28;20033;-55
2022/06/13 03:36:26;;;;;;;7.07;2.40;;;;;;;;;;5031484;28;20030;-55
2022/06/13 03:39:21;;;;;;;6.50;2.13;;;;;;;;;;5025253;28;20029;-55
2022/06/13 03:41:50;;;;;;;8.48;2.67;;;;;;;;;;5037255;28;20631;-55
2022/06/13 03:44:20;;;;;;;5.22;2.05;;;;;;;;;;5035483;28;20022;-56
2022/06/13 03:46:52;;;;;;;6.85;2.70;;;;;;;;;;5032027;28;20448;-57
2022/06/13 03:49:36;;;;;;;6.40;2.03;;;;;;;;;;5032646;28;20059;-55
2022/06/13 03:52:03;;;;;;;8.18;2.00;;;;;;;;;;5021225;28;20469;-55
2022/06/13 03:54:41;;;;;;;9.20;2.50;;;;;;;;;;5031305;28;20393;-55
2022/06/13 03:57:21;;;;;;;8.85;2.28;;;;;;;;;;5025526;28;20108;-54
2022/06/13 03:59:50;;;;;;;5.93;2.35;;;;;;;;;;5033563;28;20047;-55
2022/06/13 04:02:19;;;;;;;8.77;2.63;;;;;;;;;;5029762;28;20025;-55
2022/06/13 04:04:46;;;;;;;8.50;2.45;;;;;;;;;;5030768;28;20017;-56
2022/06/13 04:07:12;;;;;;;7.00;2.17;;;;;;;;;;5032035;28;20029;-55
2022/06/13 04:09:41;;;;;;;5.65;2.55;;;;;;;;;;5031350;28;20037;-56
2022/06/13 04:12:25;;;;;;;9.55;2.47;;;;;;;;;;5032047;28;20030;-54
2022/06/13 04:14:59;;;;;;;6.20;2.20;;;;;;;;;;5032307;28;20022;-55
2022/06/13 04:17:30;;;;;;;8.85;2.58;;;;;;;;;;5037368;28;20033;-56
2022/06/13 04:20:02;;;;;;;7.75;2.25;;;;;;;;;;5031074;28;20341;-55
2022/06/13 04:22:39;;;;;;;7.25;2.40;;;;;;;;;;5020016;28;20108;-54
2022/06/13 04:25:11;;;;;;;7.45;2.03;;;;;;;;;;5031432;28;20033;-53
2022/06/13 04:27:55;;;;;;;6.80;2.45;;;;;;;;;;5031004;28;20033;-56
2022/06/13 04:30:22;;;;;;;9.18;2.42;;;;;;;;;;5030077;28;20637;-55
2022/06/13 04:32:52;;;;;;;6.57;2.13;;;;;;;;;;5031597;28;20025;-55
2022/06/13 04:35:18;;;;;;;6.07;2.30;;;;;;;;;;5030723;28;20496;-56
2022/06/13 04:37:45;;;;;;;5.95;3.00;;;;;;;;;;5028031;28;20025;-56
2022/06/13 04:40:17;;;;;;;7.75;2.50;;;;;;;;;;5027841;28;20031;-55
2022/06/13 04:42:43;;;;;;;9.37;2.47;;;;;;;;;;5031719;28;20022;-55
2022/06/13 04:45:23;;;;;;;8.82;2.75;;;;;;;;;;5031206;28;20549;-56
2022/06/13 04:47:49;;;;;;;6.93;1.95;;;;;;;;;;5035229;28;20472;-56
2022/06/13 04:50:17;;;;;;;5.38;2.33;;;;;;;;;;5027770;28;20133;-56
2022/06/13 04:52:45;;;;;;;6.55;2.67;;;;;;;;;;5030134;28;20105;-55
2022/06/13 04:55:18;;;;;;;10.70;2.80;;;;;;;;;;5028840;28;20092;-55
2022/06/13 04:57:44;;;;;;;8.52;2.47;;;;;;;;;;5027408;28;20155;-56
2022/06/13 05:00:10;;;;;;;9.50;2.35;;;;;;;;;;5035962;28;20037;-56
2022/06/13 05:02:38;;;;;;;11.27;2.85;;;;;;;;;;5038963;28;20439;-56
2022/06/13 05:05:06;;;;;;;10.07;2.72;;;;;;;;;;5032036;28;20051;-55
2022/06/13 05:07:34;;;;;;;12.05;2.53;;;;;;;;;;5033143;28;20028;-54
2022/06/13 05:10:01;;;;;;;15.05;2.72;;;;;;;;;;5032872;28;20546;-54
2022/06/13 05:12:33;;;;;;;9.18;2.58;;;;;;;;;;5029513;28;20040;-55
2022/06/13 05:15:03;;;;;;;6.63;2.22;;;;;;;;;;5025768;28;20034;-56
2022/06/13 05:17:32;;;;;;;9.25;2.15;;;;;;;;;;5035289;28;20021;-56
2022/06/13 05:20:08;;;;;;;11.95;2.70;;;;;;;;;;5037953;28;20388;-55
2022/06/13 05:22:37;;;;;;;7.25;2.10;;;;;;;;;;5042404;28;20026;-56
2022/06/13 05:25:23;;;;;;;7.90;2.67;;;;;;;;;;5032402;28;20029;-56
2022/06/13 05:27:49;;;;;;;10.15;2.38;;;;;;;;;;5030789;28;20034;-55
2022/06/13 05:30:16;;;;;;;8.27;2.13;;;;;;;;;;5031443;28;20105;-56
2022/06/13 05:32:43;;;;;;;13.10;2.83;;;;;;;;;;5031016;28;20033;-57
2022/06/13 05:35:17;;;;;;;10.88;2.35;;;;;;;;;;5029658;28;20047;-56
2022/06/13 05:37:43;;;;;;;7.57;2.45;;;;;;;;;;5027708;28;20036;-56
2022/06/13 05:40:13;;;;;;;8.75;1.80;;;;;;;;;;5030115;28;20021;-56
2022/06/13 05:42:39;;;;;;;8.55;2.17;;;;;;;;;;5027430;28;20057;-56
2022/06/13 05:45:05;;;;;;;6.60;2.13;;;;;;;;;;5027601;28;20025;-56
2022/06/13 05:47:31;;;;;;;5.75;2.00;;;;;;;;;;5026954;28;20079;-55
2022/06/13 05:49:58;;;;;;;5.88;2.03;;;;;;;;;;5024812;28;20144;-56
2022/06/13 05:52:24;;;;;;;11.63;2.47;;;;;;;;;;5030964;28;20411;-55
2022/06/13 05:54:50;;;;;;;5.28;1.75;;;;;;;;;;5029265;28;20096;-55
2022/06/13 05:57:16;;;;;;;8.63;2.10;;;;;;;;;;5027023;28;20029;-55
2022/06/13 05:59:42;;;;;;;12.05;2.55;;;;;;;;;;5021113;28;20052;-56
2022/06/13 06:02:11;;;;;;;10.70;2.85;;;;;;;;;;5027966;28;20481;-56
2022/06/13 06:04:37;;;;;;;7.35;2.28;;;;;;;;;;5031448;28;20040;-55
2022/06/13 06:07:03;;;;;;;7.05;2.22;;;;;;;;;;5030052;28;20029;-55
2022/06/13 06:09:29;;;;;;;9.15;2.40;;;;;;;;;;5028358;28;20080;-56
2022/06/13 06:11:55;;;;;;;9.52;2.78;;;;;;;;;;5029785;28;20041;-55
2022/06/13 06:14:21;;;;;;;6.10;2.63;;;;;;;;;;5030924;28;20504;-56
2022/06/13 06:16:47;;;;;;;6.45;1.80;;;;;;;;;;5029543;28;20382;-54
2022/06/13 06:19:13;;;;;;;5.10;1.98;;;;;;;;;;5030913;28;20437;-55
2022/06/13 06:21:39;;;;;;;8.25;2.55;;;;;;;;;;5029685;28;20048;-55
2022/06/13 06:24:05;;;;;;;7.80;2.45;;;;;;;;;;5034691;28;20036;-56
2022/06/13 06:26:32;;;;;;;12.50;2.28;;;;;;;;;;5031275;28;20115;-54
2022/06/13 06:28:58;;;;;;;7.68;2.60;;;;;;;;;;5032041;28;20493;-56
2022/06/13 06:31:24;;;;;;;7.78;2.22;;;;;;;;;;5034154;28;20029;-56
2022/06/13 06:33:50;;;;;;;4.97;1.92;;;;;;;;;;5038701;28;20026;-55
2022/06/13 06:36:17;;;;;;;9.80;1.98;;;;;;;;;;5026233;28;20076;-56
2022/06/13 06:38:43;;;;;;;8.57;2.70;;;;;;;;;;5030054;28;20033;-57
2022/06/13 06:41:09;;;;;;;6.80;2.33;;;;;;;;;;5027308;28;20103;-56
2022/06/13 06:43:35;;;;;;;9.73;1.95;;;;;;;;;;5032898;28;20028;-56
2022/06/13 06:46:01;;;;;;;11.07;2.45;;;;;;;;;;5030864;28;20401;-54
2022/06/13 06:48:28;;;;;;;7.53;2.35;;;;;;;;;;5033373;28;20032;-56
2022/06/13 06:50:54;;;;;;;6.60;1.52;;;;;;;;;;5036714;28;20678;-55
2022/06/13 06:53:24;;;;;;;5.68;2.20;;;;;;;;;;5025155;28;20037;-54
2022/06/13 07:01:19;;;;;;;13.25;2.03;;;;;;;;;;5028578;28;20484;-55
2022/06/13 07:03:45;;;;;;;9.27;1.90;;;;;;;;;;5033038;28;20509;-55
2022/06/13 07:06:12;;;;;;;6.50;1.70;;;;;;;;;;5026759;28;20080;-55
2022/06/13 07:08:38;;;;;;;10.07;2.00;;;;;;;;;;5027710;28;20123;-55
2022/06/13 07:13:52;;;;;;;11.23;2.03;;;;;;;;;;5025465;28;20854;-56
2022/06/13 07:16:18;;;;;;;6.60;1.50;;;;;;;;;;5028135;28;20025;-55
2022/06/13 07:18:45;;;;;;;6.80;1.52;;;;;;;;;;5027349;28;20429;-56
2022/06/13 07:21:11;;;;;;;7.20;2.05;;;;;;;;;;5029816;28;20025;-54
2022/06/13 07:23:38;;;;;;;5.35;1.50;;;;;;;;;;5024701;28;20458;-55
2022/06/13 07:26:04;;;;;;;6.57;1.30;;;;;;;;;;5023659;28;20535;-56
2022/06/13 07:28:30;;;;;;;5.97;1.30;;;;;;;;;;5029302;28;20033;-55
2022/06/13 07:30:56;;;;;;;6.13;1.60;;;;;;;;;;5031963;28;20037;-56
2022/06/13 07:33:23;;;;;;;3.88;1.30;;;;;;;;;;5031409;28;20099;-55
2022/06/13 07:35:49;;;;;;;4.35;0.88;;;;;;;;;;5028214;28;20037;-55
2022/06/13 07:38:18;;;;;;;4.90;1.48;;;;;;;;;;5027505;28;20084;-56
2022/06/13 07:40:46;;;;;;;5.90;1.67;;;;;;;;;;5029232;28;20528;-54
2022/06/13 07:43:18;;;;;;;4.97;2.10;;;;;;;;;;5033776;28;20466;-55
2022/06/13 07:45:44;;;;;;;5.65;1.40;;;;;;;;;;5029666;28;20596;-56
2022/06/13 07:48:11;;;;;;;5.43;1.60;;;;;;;;;;5029375;28;20029;-57
2022/06/13 07:50:37;;;;;;;6.93;1.42;;;;;;;;;;5022933;28;20122;-55
2022/06/13 07:53:02;;;;;;;4.75;1.70;;;;;;;;;;5034176;28;20104;-55
2022/06/13 07:55:31;;;;;;;3.42;1.15;;;;;;;;;;5027400;28;20038;-57
2022/06/13 07:57:57;;;;;;;6.53;1.80;;;;;;;;;;5027935;28;20055;-56
2022/06/13 08:00:25;;;;;;;5.75;1.48;;;;;;;;;;5027987;28;20025;-56
2022/06/13 08:02:51;;;;;;;8.05;1.70;;;;;;;;;;5027909;28;20029;-56
2022/06/13 08:05:18;;;;;;;8.95;1.38;;;;;;;;;;5028344;28;20041;-56
2022/06/13 08:07:44;;;;;;;8.85;2.15;;;;;;;;;;5028117;28;20031;-56
2022/06/13 08:10:10;;;;;;;7.88;2.00;;;;;;;;;;5024056;28;20038;-57
2022/06/13 08:12:36;;;;;;;7.93;1.80;;;;;;;;;;5029748;28;20075;-56
2022/06/13 08:15:02;;;;;;;4.75;1.23;;;;;;;;;;5032771;28;20044;-54
2022/06/13 08:17:28;;;;;;;5.45;1.38;;;;;;;;;;5028475;28;20120;-56
2022/06/13 08:19:54;;;;;;;6.10;1.23;;;;;;;;;;5030347;28;20044;-56
2022/06/13 08:22:20;;;;;;;5.18;1.40;;;;;;;;;;5030379;28;20051;-56
2022/06/13 08:24:46;;;;;;;8.75;1.40;;;;;;;;;;5024827;28;20029;-56
2022/06/13 08:27:12;;;;;;;5.40;1.70;;;;;;;;;;5032640;28;20025;-55
2022/06/13 08:29:38;;;;;;;5.80;1.50;;;;;;;;;;5039838;28;20030;-55
2022/06/13 08:32:04;;;;;;;7.18;1.45;;;;;;;;;;5029696;28;20029;-55
2022/06/13 08:34:31;;;;;;;6.10;2.30;;;;;;;;;;5033895;28;20029;-56
2022/06/13 08:36:57;;;;;;;8.00;1.50;;;;;;;;;;5031051;28;20041;-55
2022/06/13 08:39:23;;;;;;;7.30;1.80;;;;;;;;;;5022796;28;20113;-57
2022/06/13 08:41:55;;;;;;;4.97;1.85;;;;;;;;;;5027220;28;20035;-57
2022/06/13 08:44:33;;;;;;;6.25;1.52;;;;;;;;;;5027400;28;20404;-56
2022/06/13 08:47:13;;;;;;;7.75;1.65;;;;;;;;;;5032011;28;20029;-56
2022/06/13 08:49:45;;;;;;;4.85;1.88;;;;;;;;;;5027320;28;20643;-55
2022/06/13 08:52:20;;;;;;;12.55;1.88;;;;;;;;;;5030204;28;20737;-56
2022/06/13 08:54:51;;;;;;;3.92;1.55;;;;;;;;;;5026639;28;20046;-56
2022/06/13 08:57:18;;;;;;;6.47;1.48;;;;;;;;;;5023184;28;20049;-54
2022/06/13 08:59:46;;;;;;;7.28;1.73;;;;;;;;;;5033554;28;20029;-56
2022/06/13 09:02:24;;;;;;;8.32;1.83;;;;;;;;;;5029241;28;20044;-57
2022/06/13 09:04:52;;;;;;;7.57;2.03;;;;;;;;;;5022019;28;20081;-57
2022/06/13 09:07:22;;;;;;;7.70;1.67;;;;;;;;;;5031944;28;20493;-57
2022/06/13 09:09:52;;;;;;;6.63;1.70;;;;;;;;;;5037362;28;20029;-56
2022/06/13 09:12:38;;;;;;;6.55;2.08;;;;;;;;;;5031630;28;20615;-54
2022/06/13 09:15:04;;;;;;;10.82;1.90;;;;;;;;;;5025393;28;20029;-56
2022/06/13 09:18:05;;;;;;;6.72;1.75;;;;;;;;;;5025917;28;20366;-56
2022/06/13 09:20:45;;;;;;;5.78;1.83;;;;;;;;;;5008814;28;20034;-56
2022/06/13 09:23:29;;;;;;;7.65;1.63;;;;;;;;;;5024023;28;20121;-56
2022/06/13 09:26:03;;;;;;;11.13;1.83;;;;;;;;;;5024020;28;20033;-55
2022/06/13 09:28:32;;;;;;;10.13;2.00;;;;;;;;;;5027237;28;20064;-54
2022/06/13 09:31:04;;;;;;;5.85;1.92;;;;;;;;;;5028951;28;20549;-56
2022/06/13 09:33:31;;;;;;;6.25;1.98;;;;;;;;;;5023418;28;20027;-56
2022/06/13 09:35:59;;;;;;;12.43;1.88;;;;;;;;;;5029536;28;20109;-55
2022/06/13 09:38:28;;;;;;;9.60;2.10;;;;;;;;;;5029210;28;20037;-56
2022/06/13 09:41:04;;;;;;;11.25;2.40;;;;;;;;;;5027761;28;20025;-56
2022/06/13 09:43:48;;;;;;;9.00;1.80;;;;;;;;;;5020149;28;20022;-56
2022/06/13 09:46:14;;;;;;;8.77;2.05;;;;;;;;;;5031249;28;20100;-56
2022/06/13 09:48:55;;;;;;;7.55;1.92;;;;;;;;;;5032989;28;20383;-55
2022/06/13 09:51:25;;;;;;;5.35;1.63;;;;;;;;;;5032807;28;20064;-55
2022/06/13 09:54:14;;;;;;;5.20;1.55;;;;;;;;;;5027419;28;20053;-54
2022/06/13 09:56:47;;;;;;;6.10;1.75;;;;;;;;;;5032046;28;20103;-55
2022/06/13 09:59:13;;;;;;;;;;;;;;;;;;5031335;28;20531;-54
2022/06/13 10:01:45;;;;;;;6.07;1.70;;;;;;;;;;5030029;28;20004;-55
2022/06/13 10:04:20;;;;;;;7.22;1.77;;;;;;;;;;5024966;28;20060;-55
2022/06/13 10:06:47;;;;;;;7.97;1.77;;;;;;;;;;5027301;28;20048;-55
2022/06/13 10:09:31;;;;;;;9.52;2.35;;;;;;;;;;5030436;28;20033;-54
2022/06/13 10:12:09;;;;;;;6.68;1.75;;;;;;;;;;5024409;28;20045;-57
2022/06/13 10:14:54;;;;;;;7.78;2.05;;;;;;;;;;5020442;28;20030;-53
2022/06/13 10:17:35;;;;;;;5.53;1.70;;;;;;;;;;5023252;28;20130;-54
2022/06/13 10:20:17;;;;;;;5.63;1.70;;;;;;;;;;5028299;28;20112;-55
2022/06/13 10:22:57;;;;;;;6.53;1.75;;;;;;;;;;5024727;28;20025;-56
2022/06/13 10:25:31;;;;;;;5.32;1.50;;;;;;;;;;5028620;28;20359;-55
2022/06/13 10:28:16;;;;;;;5.57;1.52;;;;;;;;;;5020923;28;20444;-57
2022/06/13 10:31:00;;;;;;;5.65;1.50;;;;;;;;;;5026016;28;21051;-55
2022/06/13 10:33:45;;;;;;;4.85;1.40;;;;;;;;;;5023958;28;20060;-56
2022/06/13 10:36:19;;;;;;;10.07;2.10;;;;;;;;;;5014461;28;20504;-56
2022/06/13 10:39:03;;;;;;;4.60;1.42;;;;;;;;;;5024176;28;20044;-55
2022/06/13 10:41:30;;;;;;;4.03;1.58;;;;;;;;;;5031013;28;20033;-55
2022/06/13 10:43:57;;;;;;;4.40;1.10;;;;;;;;;;5027405;28;20530;-56
2022/06/13 10:46:23;;;;;;;3.00;1.10;;;;;;;;;;5026429;28;20029;-56
2022/06/13 10:49:12;;;;;;;4.60;1.05;;;;;;;;;;5027446;28;20103;-56
2022/06/13 10:51:40;;;;;;;3.85;1.13;;;;;;;;;;5031158;28;20033;-56
2022/06/13 10:54:26;;;;;;;4.18;1.17;;;;;;;;;;5028289;28;20041;-56
2022/06/13 10:56:55;;;;;;;5.47;1.00;;;;;;;;;;5033273;28;20583;-56
2022/06/13 10:59:23;;;;;;;5.20;1.25;;;;;;;;;;5036173;28;20100;-57
2022/06/13 11:01:54;;;;;;;6.30;0.95;;;;;;;;;;5024288;28;20021;-55
2022/06/13 11:04:20;;;;;;;3.58;1.25;;;;;;;;;;5026989;28;20542;-57
2022/06/13 11:06:47;;;;;;;3.75;0.95;;;;;;;;;;5027744;28;20029;-56
2022/06/13 11:09:32;;;;;;;6.15;1.35;;;;;;;;;;5026935;28;20030;-55
2022/06/13 11:11:59;;;;;;;7.72;1.15;;;;;;;;;;5025112;28;20045;-56
2022/06/13 11:14:27;;;;;;;3.35;1.02;;;;;;;;;;5037288;28;20063;-56
2022/06/13 11:22:40;;;;;;;6.13;1.83;;;;;;;;;;5025684;28;20064;-56
2022/06/13 11:25:15;;;;;;;6.07;1.17;;;;;;;;;;5034716;28;20605;-57
2022/06/13 11:27:42;;;;;;;8.43;1.48;;;;;;;;;;5030278;28;20029;-55
2022/06/13 11:30:29;;;;;;;4.97;1.20;;;;;;;;;;5034751;28;20029;-57
2022/06/13 11:32:57;;;;;;;5.20;1.20;;;;;;;;;;5025437;28;20113;-55
2022/06/13 11:35:32;;;;;;;4.32;1.23;;;;;;;;;;5028950;28;20362;-57
2022/06/13 11:38:14;;;;;;;4.38;1.48;;;;;;;;;;5025340;28;20026;-56
2022/06/13 11:40:41;;;;;;;5.15;1.38;;;;;;;;;;5024789;28;20049;-56
2022/06/13 11:43:30;;;;;;;4.70;1.20;;;;;;;;;;5024142;28;20473;-56
2022/06/13 11:46:00;;;;;;;4.78;0.82;;;;;;;;;;5025096;28;20542;-57
2022/06/13 11:48:28;;;;;;;4.78;1.13;;;;;;;;;;5032906;28;20388;-56
2022/06/13 11:50:59;;;;;;;5.43;1.30;;;;;;;;;;5024796;28;20052;-55
2022/06/13 11:53:37;;;;;;;5.38;1.58;;;;;;;;;;5026808;28;20443;-57
2022/06/13 11:56:22;;;;;;;7.53;1.40;;;;;;;;;;5029603;28;20091;-56
2022/06/13 11:58:49;;;;;;;7.35;1.00;;;;;;;;;;5030526;28;20037;-56
2022/06/13 12:01:19;;;;;;;8.85;1.65;;;;;;;;;;5032738;28;20025;-56
2022/06/13 12:03:59;;;;;;;11.18;1.55;;;;;;;;;;5033810;28;20477;-57
2022/06/13 12:06:26;;;;;;;7.25;1.48;;;;;;;;;;5028158;28;20489;-55
2022/06/13 12:09:01;;;;;;;6.97;1.50;;;;;;;;;;5034866;28;20037;-55
2022/06/13 12:11:27;;;;;;;2.83;1.23;;;;;;;;;;5026730;28;20041;-55
2022/06/13 12:13:56;;;;;;;4.28;1.30;;;;;;;;;;5030231;28;20529;-56
2022/06/13 12:16:44;;;;;;;5.80;1.05;;;;;;;;;;5041439;28;20509;-56
2022/06/13 12:19:23;;;;;;;6.32;1.40;;;;;;;;;;5039313;28;20540;-56
2022/06/13 12:22:04;;;;;;;4.07;1.00;;;;;;;;;;5036056;28;20017;-57
2022/06/13 12:24:53;;;;;;;3.05;1.08;;;;;;;;;;5030899;28;20413;-57
2022/06/13 12:27:31;;;;;;;2.95;1.02;;;;;;;;;;5037930;28;20505;-56
2022/06/13 12:30:18;;;;;;;5.43;1.20;;;;;;;;;;5029748;28;20037;-56
2022/06/13 12:32:47;;;;;;;3.22;0.82;;;;;;;;;;5028801;28;20112;-56
2022/06/13 12:35:12;;;;;;;3.65;1.00;;;;;;;;;;5028947;28;20029;-56
2022/06/13 12:38:03;;;;;;;3.70;0.82;;;;;;;;;;5030008;28;20033;-55
2022/06/13 12:40:49;;;;;;;3.50;1.00;;;;;;;;;;5034780;28;20021;-56
2022/06/13 12:43:15;;;;;;;4.95;1.55;;;;;;;;;;5028830;28;20044;-56
2022/06/13 12:45:50;;;;;;;2.63;0.85;;;;;;;;;;5033322;28;20029;-56
2022/06/13 12:48:28;;;;;;;4.10;1.00;;;;;;;;;;5032647;28;20029;-57
2022/06/13 12:51:01;;;;;;;2.92;1.10;;;;;;;;;;5032071;28;20052;-57
2022/06/13 12:53:46;;;;;;;4.97;1.40;;;;;;;;;;5025707;28;20033;-56
2022/06/13 12:56:12;;;;;;;2.40;0.88;;;;;;;;;;5029370;28;20396;-57
2022/06/13 12:59:04;;;;;;;1.38;0.90;;;;;;;;;;5026816;28;20048;-56
2022/06/13 13:01:36;;;;;;;6.80;0.98;;;;;;;;;;5032268;28;20057;-56
2022/06/13 13:04:22;;;;;;;3.28;1.35;;;;;;;;;;5029503;28;20033;-57
2022/06/13 13:06:58;;;;;;;2.85;0.80;;;;;;;;;;5032078;28;20057;-57
2022/06/13 13:09:43;;;;;;;4.45;0.93;;;;;;;;;;5032512;28;20481;-54
2022/06/13 13:12:27;;;;;;;3.88;0.88;;;;;;;;;;5034287;28;20025;-56
2022/06/13 13:15:01;;;;;;;3.60;0.90;;;;;;;;;;5030182;28;20041;-57
2022/06/13 13:17:36;;;;;;;4.07;0.88;;;;;;;;;;5031274;28;20033;-56
2022/06/13 13:20:07;;;;;;;3.45;0.93;;;;;;;;;;5032918;28;20037;-56
2022/06/13 13:22:50;;;;;;;5.88;0.65;;;;;;;;;;5028802;28;20034;-55
2022/06/13 13:25:19;;;;;;;1.58;0.57;;;;;;;;;;5032514;28;20040;-56
2022/06/13 13:27:52;;;;;;;4.22;0.57;;;;;;;;;;5031260;28;20033;-57
2022/06/13 13:30:26;;;;;;;2.33;0.60;;;;;;;;;;5033196;28;20036;-56
2022/06/13 13:33:10;;;;;;;0.77;0.47;;;;;;;;;;5033221;28;20069;-54
2022/06/13 13:35:47;;;;;;;1.80;0.55;;;;;;;;;;5031392;28;20029;-53
2022/06/13 13:38:16;;;;;;;2.22;0.47;;;;;;;;;;5031210;28;20503;-55
2022/06/13 13:40:45;;;;;;;1.52;0.45;;;;;;;;;;5032018;28;20386;-55
2022/06/13 13:43:24;;;;;;;3.78;0.70;;;;;;;;;;5031244;28;20022;-58
2022/06/13 13:45:53;;;;;;;2.22;0.50;;;;;;;;;;5027245;28;20344;-55
2022/06/13 13:48:28;;;;;;;1.45;0.50;;;;;;;;;;5029237;28;20037;-55
2022/06/13 13:51:08;;;;;;;3.53;0.50;;;;;;;;;;5038500;28;20454;-55
2022/06/13 13:53:44;;;;;;;2.75;0.50;;;;;;;;;;5034013;28;20029;-55
2022/06/13 13:56:14;;;;;;;2.22;0.52;;;;;;;;;;5035605;28;20045;-56
2022/06/13 13:58:42;;;;;;;2.95;0.52;;;;;;;;;;5033228;28;20021;-54
2022/06/13 14:01:08;;;;;;;2.55;0.75;;;;;;;;;;5033780;28;20481;-56
2022/06/13 14:03:53;;;;;;;3.10;1.10;;;;;;;;;;5037036;28;20029;-55
2022/06/13 14:06:22;;;;;;;4.47;0.88;;;;;;;;;;5028686;28;20033;-54
2022/06/13 14:08:49;;;;;;;3.10;0.60;;;;;;;;;;5028568;28;20030;-54
2022/06/13 14:11:15;;;;;;;3.25;0.88;;;;;;;;;;5028429;28;20038;-54
2022/06/13 14:13:42;;;;;;;2.00;0.50;;;;;;;;;;5030546;28;20493;-55
2022/06/13 14:16:17;;;;;;;6.88;0.77;;;;;;;;;;5027384;28;20558;-57
2022/06/13 14:18:43;;;;;;;1.30;0.35;;;;;;;;;;5031858;28;20029;-57
2022/06/13 14:21:14;;;;;;;3.13;0.60;;;;;;;;;;5033572;28;20029;-57
2022/06/13 14:23:54;;;;;;;3.50;0.70;;;;;;;;;;5031942;28;20103;-56
2022/06/13 14:26:32;;;;;;;3.10;0.60;;;;;;;;;;5033842;28;20021;-56
2022/06/13 14:29:00;;;;;;;2.80;0.75;;;;;;;;;;5026386;28;20022;-56
2022/06/13 14:31:26;;;;;;;1.98;0.93;;;;;;;;;;5034082;28;20066;-56
2022/06/13 14:36:53;;;;;;;2.47;0.70;;;;;;;;;;5030996;28;20099;-57
2022/06/13 14:39:31;;;;;;;2.72;0.65;;;;;;;;;;5022528;28;20024;-56
2022/06/13 14:42:04;;;;;;;2.00;0.50;;;;;;;;;;5033984;28;20025;-56
2022/06/13 14:44:37;;;;;;;1.48;0.30;;;;;;;;;;5028469;28;20032;-57
2022/06/13 14:47:16;;;;;;;3.35;0.50;;;;;;;;;;5034353;28;20079;-56
2022/06/13 14:49:48;;;;;;;1.98;0.60;;;;;;;;;;5030990;28;20034;-56
2022/06/13 14:52:22;;;;;;;1.13;0.30;;;;;;;;;;5030796;28;20033;-56
2022/06/13 14:55:10;;;;;;;0.80;0.40;;;;;;;;;;5029647;28;20124;-56
2022/06/13 14:57:36;;;;;;;1.42;0.50;;;;;;;;;;5026708;28;20044;-56
2022/06/13 15:00:09;;;;;;;3.20;0.55;;;;;;;;;;5029020;28;20096;-57
2022/06/13 15:03:01;;;;;;;2.17;0.30;;;;;;;;;;5028247;28;20017;-55
2022/06/13 15:05:30;;;;;;;0.40;0.20;;;;;;;;;;5033173;28;20618;-56
2022/06/13 15:08:07;;;;;;;2.33;0.60;;;;;;;;;;5028726;28;20108;-55
2022/06/13 15:10:40;;;;;;;1.35;0.30;;;;;;;;;;5028298;28;20061;-57
2022/06/13 15:13:06;;;;;;;2.55;1.08;;;;;;;;;;5033681;28;20480;-56
2022/06/13 15:15:33;;;;;;;1.33;0.43;;;;;;;;;;5032343;28;20092;-56
2022/06/13 15:17:59;;;;;;;0.80;0.28;;;;;;;;;;5027018;28;20088;-57
2022/06/13 15:20:31;;;;;;;0.80;0.30;;;;;;;;;;5027968;28;20033;-56
2022/06/13 15:23:02;;;;;;;1.77;0.47;;;;;;;;;;5031192;28;20525;-55
2022/06/13 15:25:42;;;;;;;2.78;0.50;;;;;;;;;;5027406;28;20056;-56
2022/06/13 15:28:09;;;;;;;1.23;0.43;;;;;;;;;;5030410;28;20545;-57
2022/06/13 15:30:36;;;;;;;4.57;0.40;;;;;;;;;;5027186;28;20061;-56
2022/06/13 15:33:18;;;;;;;4.53;0.77;;;;;;;;;;5033983;28;20043;-57